sensor_id;sensor_type;location;lat;lon;timestamp;P1;durP1;ratioP1;P2;durP2;ratioP2
31716;SDS011;18301;51.076;17.046;2023-06-14T00:00:23;9.90;;;6.15;;
31716;SDS011;18301;51.076;17.046;2023-06-14T00:05:24;7.05;;;5.55;;
31716;SDS011;18301;51.076;17.046;2023-06-14T00:10:26;7.43;;;5.55;;
31716;SDS011;18301;51.076;17.046;2023-06-14T00:15:32;8.90;;;5.80;;
31716;SDS011;18301;51.076;17.046;2023-06-14T00:20:33;8.73;;;5.75;;
31716;SDS011;18301;51.076;17.046;2023-06-14T00:25:35;7.88;;;5.85;;
31716;SDS011;18301;51.076;17.046;2023-06-14T00:30:37;8.35;;;5.70;;
31716;SDS011;18301;51.076;17.046;2023-06-14T00:35:38;7.55;;;5.38;;
31716;SDS011;18301;51.076;17.046;2023-06-14T00:40:40;6.95;;;5.35;;
31716;SDS011;18301;51.076;17.046;2023-06-14T00:45:41;8.23;;;5.60;;
31716;SDS011;18301;51.076;17.046;2023-06-14T00:50:43;8.00;;;5.25;;
31716;SDS011;18301;51.076;17.046;2023-06-14T00:55:46;8.13;;;5.90;;
31716;SDS011;18301;51.076;17.046;2023-06-14T01:00:48;5.90;;;4.97;;
31716;SDS011;18301;51.076;17.046;2023-06-14T01:05:51;7.30;;;5.60;;
31716;SDS011;18301;51.076;17.046;2023-06-14T01:11:10;13.48;;;6.28;;
31716;SDS011;18301;51.076;17.046;2023-06-14T01:16:17;7.95;;;5.25;;
31716;SDS011;18301;51.076;17.046;2023-06-14T01:21:20;7.40;;;5.75;;
31716;SDS011;18301;51.076;17.046;2023-06-14T01:26:22;7.63;;;6.10;;
31716;SDS011;18301;51.076;17.046;2023-06-14T01:31:24;7.45;;;5.70;;
31716;SDS011;18301;51.076;17.046;2023-06-14T01:36:27;10.23;;;5.72;;
31716;SDS011;18301;51.076;17.046;2023-06-14T01:41:29;8.68;;;6.20;;
31716;SDS011;18301;51.076;17.046;2023-06-14T01:46:31;8.90;;;5.97;;
31716;SDS011;18301;51.076;17.046;2023-06-14T01:51:33;8.88;;;6.43;;
31716;SDS011;18301;51.076;17.046;2023-06-14T01:56:35;8.95;;;6.38;;
31716;SDS011;18301;51.076;17.046;2023-06-14T02:01:36;10.68;;;6.80;;
31716;SDS011;18301;51.076;17.046;2023-06-14T02:06:38;9.75;;;6.50;;
31716;SDS011;18301;51.076;17.046;2023-06-14T02:11:39;7.80;;;5.97;;
31716;SDS011;18301;51.076;17.046;2023-06-14T02:16:41;7.95;;;6.40;;
31716;SDS011;18301;51.076;17.046;2023-06-14T02:21:49;7.55;;;6.22;;
31716;SDS011;18301;51.076;17.046;2023-06-14T02:26:51;8.77;;;6.78;;
31716;SDS011;18301;51.076;17.046;2023-06-14T02:31:52;9.05;;;6.55;;
31716;SDS011;18301;51.076;17.046;2023-06-14T02:36:54;9.80;;;6.50;;
31716;SDS011;18301;51.076;17.046;2023-06-14T02:41:56;10.68;;;6.30;;
31716;SDS011;18301;51.076;17.046;2023-06-14T02:46:58;8.75;;;6.00;;
31716;SDS011;18301;51.076;17.046;2023-06-14T02:52:01;8.05;;;6.00;;
31716;SDS011;18301;51.076;17.046;2023-06-14T02:57:04;8.85;;;6.63;;
31716;SDS011;18301;51.076;17.046;2023-06-14T03:02:08;9.75;;;6.82;;
31716;SDS011;18301;51.076;17.046;2023-06-14T03:07:09;8.43;;;6.43;;
31716;SDS011;18301;51.076;17.046;2023-06-14T03:12:11;11.40;;;6.65;;
31716;SDS011;18301;51.076;17.046;2023-06-14T03:17:12;10.10;;;6.68;;
31716;SDS011;18301;51.076;17.046;2023-06-14T03:22:14;9.45;;;7.03;;
31716;SDS011;18301;51.076;17.046;2023-06-14T03:27:16;12.30;;;7.07;;
31716;SDS011;18301;51.076;17.046;2023-06-14T03:32:18;9.95;;;7.55;;
31716;SDS011;18301;51.076;17.046;2023-06-14T03:37:19;8.95;;;6.55;;
31716;SDS011;18301;51.076;17.046;2023-06-14T03:42:21;11.32;;;7.55;;
31716;SDS011;18301;51.076;17.046;2023-06-14T03:47:22;10.63;;;6.93;;
31716;SDS011;18301;51.076;17.046;2023-06-14T03:52:24;9.45;;;6.80;;
31716;SDS011;18301;51.076;17.046;2023-06-14T03:57:26;8.88;;;6.65;;
31716;SDS011;18301;51.076;17.046;2023-06-14T04:02:27;10.73;;;6.93;;
31716;SDS011;18301;51.076;17.046;2023-06-14T04:07:32;12.75;;;6.80;;
31716;SDS011;18301;51.076;17.046;2023-06-14T04:12:33;9.38;;;7.00;;
31716;SDS011;18301;51.076;17.046;2023-06-14T04:17:35;9.27;;;6.72;;
31716;SDS011;18301;51.076;17.046;2023-06-14T04:22:38;9.50;;;6.38;;
31716;SDS011;18301;51.076;17.046;2023-06-14T04:27:39;12.35;;;7.78;;
31716;SDS011;18301;51.076;17.046;2023-06-14T04:32:41;11.52;;;7.05;;
31716;SDS011;18301;51.076;17.046;2023-06-14T04:37:44;10.52;;;6.95;;
31716;SDS011;18301;51.076;17.046;2023-06-14T04:42:46;9.80;;;6.50;;
31716;SDS011;18301;51.076;17.046;2023-06-14T04:47:48;11.52;;;7.18;;
31716;SDS011;18301;51.076;17.046;2023-06-14T04:52:49;12.82;;;8.27;;
31716;SDS011;18301;51.076;17.046;2023-06-14T04:57:52;8.85;;;7.30;;
31716;SDS011;18301;51.076;17.046;2023-06-14T05:02:54;12.93;;;7.55;;
31716;SDS011;18301;51.076;17.046;2023-06-14T05:07:56;12.77;;;7.45;;
31716;SDS011;18301;51.076;17.046;2023-06-14T05:12:58;14.18;;;7.95;;
31716;SDS011;18301;51.076;17.046;2023-06-14T05:17:59;11.48;;;8.02;;
31716;SDS011;18301;51.076;17.046;2023-06-14T05:23:01;15.77;;;8.32;;
31716;SDS011;18301;51.076;17.046;2023-06-14T05:28:02;13.85;;;8.85;;
31716;SDS011;18301;51.076;17.046;2023-06-14T05:33:04;13.85;;;9.57;;
31716;SDS011;18301;51.076;17.046;2023-06-14T05:38:06;13.23;;;9.25;;
31716;SDS011;18301;51.076;17.046;2023-06-14T05:43:09;15.30;;;9.10;;
31716;SDS011;18301;51.076;17.046;2023-06-14T05:48:10;17.55;;;9.65;;
31716;SDS011;18301;51.076;17.046;2023-06-14T05:53:12;15.05;;;10.05;;
31716;SDS011;18301;51.076;17.046;2023-06-14T05:58:13;11.95;;;9.32;;
31716;SDS011;18301;51.076;17.046;2023-06-14T06:03:15;12.95;;;9.20;;
31716;SDS011;18301;51.076;17.046;2023-06-14T06:08:16;13.05;;;9.50;;
31716;SDS011;18301;51.076;17.046;2023-06-14T06:13:18;12.93;;;9.55;;
31716;SDS011;18301;51.076;17.046;2023-06-14T06:18:20;12.85;;;9.23;;
31716;SDS011;18301;51.076;17.046;2023-06-14T06:23:21;16.48;;;10.35;;
31716;SDS011;18301;51.076;17.046;2023-06-14T06:28:23;18.60;;;11.43;;
31716;SDS011;18301;51.076;17.046;2023-06-14T06:33:24;16.42;;;11.52;;
31716;SDS011;18301;51.076;17.046;2023-06-14T06:38:26;17.20;;;11.48;;
31716;SDS011;18301;51.076;17.046;2023-06-14T06:43:27;17.42;;;11.05;;
31716;SDS011;18301;51.076;17.046;2023-06-14T06:48:29;15.68;;;11.32;;
31716;SDS011;18301;51.076;17.046;2023-06-14T06:53:31;17.38;;;12.45;;
31716;SDS011;18301;51.076;17.046;2023-06-14T06:58:43;14.98;;;10.95;;
31716;SDS011;18301;51.076;17.046;2023-06-14T07:03:44;17.30;;;12.45;;
31716;SDS011;18301;51.076;17.046;2023-06-14T07:08:46;16.15;;;11.38;;
31716;SDS011;18301;51.076;17.046;2023-06-14T07:13:49;17.17;;;11.52;;
31716;SDS011;18301;51.076;17.046;2023-06-14T07:18:51;16.35;;;12.50;;
31716;SDS011;18301;51.076;17.046;2023-06-14T07:23:53;17.33;;;11.52;;
31716;SDS011;18301;51.076;17.046;2023-06-14T07:28:55;16.98;;;12.32;;
31716;SDS011;18301;51.076;17.046;2023-06-14T07:33:56;14.95;;;11.23;;
31716;SDS011;18301;51.076;17.046;2023-06-14T07:38:58;15.00;;;11.25;;
31716;SDS011;18301;51.076;17.046;2023-06-14T07:44:00;14.05;;;9.23;;
31716;SDS011;18301;51.076;17.046;2023-06-14T07:49:02;18.33;;;11.85;;
31716;SDS011;18301;51.076;17.046;2023-06-14T07:54:03;20.98;;;12.55;;
31716;SDS011;18301;51.076;17.046;2023-06-14T07:59:05;16.70;;;11.23;;
31716;SDS011;18301;51.076;17.046;2023-06-14T08:04:07;13.43;;;9.98;;
31716;SDS011;18301;51.076;17.046;2023-06-14T08:09:08;16.15;;;11.20;;
31716;SDS011;18301;51.076;17.046;2023-06-14T08:14:10;14.75;;;11.15;;
31716;SDS011;18301;51.076;17.046;2023-06-14T08:19:12;14.27;;;9.95;;
31716;SDS011;18301;51.076;17.046;2023-06-14T08:24:14;16.10;;;10.20;;
31716;SDS011;18301;51.076;17.046;2023-06-14T08:29:15;13.02;;;9.98;;
31716;SDS011;18301;51.076;17.046;2023-06-14T08:34:17;14.75;;;10.02;;
31716;SDS011;18301;51.076;17.046;2023-06-14T08:39:18;13.68;;;9.63;;
31716;SDS011;18301;51.076;17.046;2023-06-14T08:44:20;11.77;;;8.60;;
31716;SDS011;18301;51.076;17.046;2023-06-14T08:49:21;11.00;;;8.32;;
31716;SDS011;18301;51.076;17.046;2023-06-14T08:54:25;14.75;;;9.88;;
31716;SDS011;18301;51.076;17.046;2023-06-14T08:59:30;12.52;;;8.30;;
31716;SDS011;18301;51.076;17.046;2023-06-14T09:04:35;11.82;;;9.05;;
31716;SDS011;18301;51.076;17.046;2023-06-14T09:09:40;12.98;;;8.68;;
31716;SDS011;18301;51.076;17.046;2023-06-14T09:15:04;14.07;;;9.00;;
31716;SDS011;18301;51.076;17.046;2023-06-14T09:20:08;12.73;;;8.05;;
31716;SDS011;18301;51.076;17.046;2023-06-14T09:25:21;12.18;;;8.60;;
31716;SDS011;18301;51.076;17.046;2023-06-14T09:30:40;10.52;;;7.78;;
31716;SDS011;18301;51.076;17.046;2023-06-14T09:35:42;13.15;;;8.60;;
31716;SDS011;18301;51.076;17.046;2023-06-14T09:40:46;11.82;;;7.32;;
31716;SDS011;18301;51.076;17.046;2023-06-14T09:45:47;13.85;;;8.30;;
31716;SDS011;18301;51.076;17.046;2023-06-14T09:50:50;9.90;;;6.60;;
31716;SDS011;18301;51.076;17.046;2023-06-14T09:55:51;13.27;;;7.07;;
31716;SDS011;18301;51.076;17.046;2023-06-14T10:00:53;11.18;;;5.82;;
31716;SDS011;18301;51.076;17.046;2023-06-14T10:05:57;9.98;;;6.15;;
31716;SDS011;18301;51.076;17.046;2023-06-14T10:11:02;10.82;;;5.70;;
31716;SDS011;18301;51.076;17.046;2023-06-14T10:16:12;8.40;;;5.50;;
31716;SDS011;18301;51.076;17.046;2023-06-14T10:21:23;6.88;;;5.15;;
31716;SDS011;18301;51.076;17.046;2023-06-14T10:26:33;7.55;;;5.80;;
31716;SDS011;18301;51.076;17.046;2023-06-14T10:31:48;7.63;;;5.40;;
31716;SDS011;18301;51.076;17.046;2023-06-14T10:42:04;8.20;;;5.57;;
31716;SDS011;18301;51.076;17.046;2023-06-14T10:52:54;5.93;;;5.00;;
31716;SDS011;18301;51.076;17.046;2023-06-14T10:57:55;7.88;;;5.43;;
31716;SDS011;18301;51.076;17.046;2023-06-14T11:08:27;8.05;;;4.65;;
31716;SDS011;18301;51.076;17.046;2023-06-14T11:13:41;10.77;;;5.00;;
31716;SDS011;18301;51.076;17.046;2023-06-14T11:18:44;8.88;;;4.78;;
31716;SDS011;18301;51.076;17.046;2023-06-14T11:23:50;6.75;;;4.63;;
31716;SDS011;18301;51.076;17.046;2023-06-14T11:28:59;10.07;;;5.43;;
31716;SDS011;18301;51.076;17.046;2023-06-14T11:34:02;8.60;;;5.60;;
31716;SDS011;18301;51.076;17.046;2023-06-14T11:39:05;6.30;;;5.07;;
31716;SDS011;18301;51.076;17.046;2023-06-14T11:44:11;7.18;;;5.25;;
31716;SDS011;18301;51.076;17.046;2023-06-14T11:49:13;8.75;;;5.22;;
31716;SDS011;18301;51.076;17.046;2023-06-14T11:54:15;5.22;;;4.57;;
31716;SDS011;18301;51.076;17.046;2023-06-14T11:59:16;6.47;;;4.75;;
31716;SDS011;18301;51.076;17.046;2023-06-14T12:04:24;5.25;;;4.25;;
31716;SDS011;18301;51.076;17.046;2023-06-14T12:09:28;5.45;;;4.13;;
31716;SDS011;18301;51.076;17.046;2023-06-14T12:14:30;4.88;;;3.65;;
31716;SDS011;18301;51.076;17.046;2023-06-14T12:19:32;9.25;;;4.50;;
31716;SDS011;18301;51.076;17.046;2023-06-14T12:24:34;6.60;;;4.15;;
31716;SDS011;18301;51.076;17.046;2023-06-14T12:29:36;7.90;;;4.20;;
31716;SDS011;18301;51.076;17.046;2023-06-14T12:34:37;7.85;;;4.03;;
31716;SDS011;18301;51.076;17.046;2023-06-14T12:39:39;6.72;;;4.80;;
31716;SDS011;18301;51.076;17.046;2023-06-14T12:44:41;6.95;;;4.40;;
31716;SDS011;18301;51.076;17.046;2023-06-14T12:49:43;7.13;;;4.90;;
31716;SDS011;18301;51.076;17.046;2023-06-14T12:54:45;8.52;;;4.38;;
31716;SDS011;18301;51.076;17.046;2023-06-14T12:59:46;5.57;;;4.93;;
31716;SDS011;18301;51.076;17.046;2023-06-14T13:04:48;7.68;;;4.68;;
31716;SDS011;18301;51.076;17.046;2023-06-14T13:09:49;6.25;;;4.57;;
31716;SDS011;18301;51.076;17.046;2023-06-14T13:14:51;7.97;;;4.72;;
31716;SDS011;18301;51.076;17.046;2023-06-14T13:19:53;6.30;;;4.93;;
31716;SDS011;18301;51.076;17.046;2023-06-14T13:24:54;7.95;;;4.90;;
31716;SDS011;18301;51.076;17.046;2023-06-14T13:29:56;7.50;;;5.32;;
31716;SDS011;18301;51.076;17.046;2023-06-14T13:34:58;7.63;;;4.95;;
31716;SDS011;18301;51.076;17.046;2023-06-14T13:39:59;9.50;;;5.35;;
31716;SDS011;18301;51.076;17.046;2023-06-14T13:45:01;5.97;;;5.13;;
31716;SDS011;18301;51.076;17.046;2023-06-14T13:50:04;7.75;;;5.10;;
31716;SDS011;18301;51.076;17.046;2023-06-14T13:55:06;6.30;;;4.90;;
31716;SDS011;18301;51.076;17.046;2023-06-14T14:00:08;6.25;;;4.50;;
31716;SDS011;18301;51.076;17.046;2023-06-14T14:05:11;9.70;;;5.25;;
31716;SDS011;18301;51.076;17.046;2023-06-14T14:10:13;6.38;;;4.95;;
31716;SDS011;18301;51.076;17.046;2023-06-14T14:15:15;9.52;;;5.72;;
31716;SDS011;18301;51.076;17.046;2023-06-14T14:20:16;10.10;;;5.80;;
31716;SDS011;18301;51.076;17.046;2023-06-14T14:25:18;7.53;;;4.78;;
31716;SDS011;18301;51.076;17.046;2023-06-14T14:30:20;5.88;;;4.15;;
31716;SDS011;18301;51.076;17.046;2023-06-14T14:35:24;6.93;;;3.83;;
31716;SDS011;18301;51.076;17.046;2023-06-14T14:40:31;5.18;;;3.63;;
31716;SDS011;18301;51.076;17.046;2023-06-14T14:45:32;8.30;;;3.90;;
31716;SDS011;18301;51.076;17.046;2023-06-14T14:50:34;5.22;;;3.30;;
31716;SDS011;18301;51.076;17.046;2023-06-14T14:55:35;6.43;;;4.38;;
31716;SDS011;18301;51.076;17.046;2023-06-14T15:00:38;6.07;;;4.32;;
31716;SDS011;18301;51.076;17.046;2023-06-14T15:05:40;8.65;;;5.40;;
31716;SDS011;18301;51.076;17.046;2023-06-14T15:10:41;8.05;;;5.55;;
31716;SDS011;18301;51.076;17.046;2023-06-14T15:15:44;7.00;;;5.28;;
31716;SDS011;18301;51.076;17.046;2023-06-14T15:20:45;7.68;;;5.60;;
31716;SDS011;18301;51.076;17.046;2023-06-14T15:25:47;10.77;;;5.80;;
31716;SDS011;18301;51.076;17.046;2023-06-14T15:30:49;8.05;;;5.63;;
31716;SDS011;18301;51.076;17.046;2023-06-14T15:35:50;6.75;;;5.88;;
31716;SDS011;18301;51.076;17.046;2023-06-14T15:40:52;9.20;;;5.40;;
31716;SDS011;18301;51.076;17.046;2023-06-14T15:45:53;9.25;;;6.53;;
31716;SDS011;18301;51.076;17.046;2023-06-14T15:50:55;7.30;;;6.18;;
31716;SDS011;18301;51.076;17.046;2023-06-14T15:55:56;9.90;;;6.70;;
31716;SDS011;18301;51.076;17.046;2023-06-14T16:00:58;8.10;;;6.05;;
31716;SDS011;18301;51.076;17.046;2023-06-14T16:05:59;8.10;;;5.40;;
31716;SDS011;18301;51.076;17.046;2023-06-14T16:11:01;6.55;;;5.85;;
31716;SDS011;18301;51.076;17.046;2023-06-14T16:16:02;7.93;;;6.15;;
31716;SDS011;18301;51.076;17.046;2023-06-14T16:21:04;8.85;;;5.35;;
31716;SDS011;18301;51.076;17.046;2023-06-14T16:26:09;8.30;;;5.40;;
31716;SDS011;18301;51.076;17.046;2023-06-14T16:31:13;6.18;;;4.60;;
31716;SDS011;18301;51.076;17.046;2023-06-14T16:36:23;9.52;;;4.63;;
31716;SDS011;18301;51.076;17.046;2023-06-14T16:41:25;6.28;;;3.95;;
31716;SDS011;18301;51.076;17.046;2023-06-14T16:46:28;6.72;;;4.30;;
31716;SDS011;18301;51.076;17.046;2023-06-14T16:51:33;5.55;;;4.30;;
31716;SDS011;18301;51.076;17.046;2023-06-14T16:56:35;6.93;;;4.80;;
31716;SDS011;18301;51.076;17.046;2023-06-14T17:01:36;6.70;;;4.95;;
31716;SDS011;18301;51.076;17.046;2023-06-14T17:06:39;7.97;;;5.05;;
31716;SDS011;18301;51.076;17.046;2023-06-14T17:11:40;7.13;;;5.63;;
31716;SDS011;18301;51.076;17.046;2023-06-14T17:16:42;9.45;;;5.25;;
31716;SDS011;18301;51.076;17.046;2023-06-14T17:21:44;7.38;;;5.03;;
31716;SDS011;18301;51.076;17.046;2023-06-14T17:26:50;7.20;;;5.57;;
31716;SDS011;18301;51.076;17.046;2023-06-14T17:31:52;6.57;;;5.55;;
31716;SDS011;18301;51.076;17.046;2023-06-14T17:36:54;6.70;;;4.80;;
31716;SDS011;18301;51.076;17.046;2023-06-14T17:41:55;5.93;;;4.90;;
31716;SDS011;18301;51.076;17.046;2023-06-14T17:46:57;6.25;;;5.18;;
31716;SDS011;18301;51.076;17.046;2023-06-14T17:51:58;6.10;;;4.68;;
31716;SDS011;18301;51.076;17.046;2023-06-14T17:57:00;5.90;;;4.70;;
31716;SDS011;18301;51.076;17.046;2023-06-14T18:02:01;9.98;;;4.65;;
31716;SDS011;18301;51.076;17.046;2023-06-14T18:07:04;7.53;;;4.60;;
31716;SDS011;18301;51.076;17.046;2023-06-14T18:12:06;6.75;;;5.00;;
31716;SDS011;18301;51.076;17.046;2023-06-14T18:17:10;7.85;;;4.70;;
31716;SDS011;18301;51.076;17.046;2023-06-14T18:22:12;5.72;;;4.63;;
31716;SDS011;18301;51.076;17.046;2023-06-14T18:27:13;5.60;;;4.18;;
31716;SDS011;18301;51.076;17.046;2023-06-14T18:32:15;5.63;;;4.22;;
31716;SDS011;18301;51.076;17.046;2023-06-14T18:37:16;5.43;;;4.40;;
31716;SDS011;18301;51.076;17.046;2023-06-14T18:42:18;7.43;;;4.80;;
31716;SDS011;18301;51.076;17.046;2023-06-14T18:47:19;6.10;;;4.93;;
31716;SDS011;18301;51.076;17.046;2023-06-14T18:52:21;9.02;;;5.13;;
31716;SDS011;18301;51.076;17.046;2023-06-14T18:57:22;5.65;;;4.97;;
31716;SDS011;18301;51.076;17.046;2023-06-14T19:02:26;8.23;;;5.40;;
31716;SDS011;18301;51.076;17.046;2023-06-14T19:07:29;5.97;;;4.88;;
31716;SDS011;18301;51.076;17.046;2023-06-14T19:12:30;7.20;;;4.93;;
31716;SDS011;18301;51.076;17.046;2023-06-14T19:17:32;8.02;;;4.70;;
31716;SDS011;18301;51.076;17.046;2023-06-14T19:22:34;5.82;;;4.50;;
31716;SDS011;18301;51.076;17.046;2023-06-14T19:27:35;5.55;;;4.10;;
31716;SDS011;18301;51.076;17.046;2023-06-14T19:32:37;7.72;;;5.28;;
31716;SDS011;18301;51.076;17.046;2023-06-14T19:37:39;7.28;;;5.03;;
31716;SDS011;18301;51.076;17.046;2023-06-14T19:42:41;6.95;;;4.80;;
31716;SDS011;18301;51.076;17.046;2023-06-14T19:47:42;7.72;;;4.70;;
31716;SDS011;18301;51.076;17.046;2023-06-14T19:52:45;6.53;;;5.03;;
31716;SDS011;18301;51.076;17.046;2023-06-14T19:57:47;5.93;;;4.93;;
31716;SDS011;18301;51.076;17.046;2023-06-14T20:02:48;5.75;;;4.32;;
31716;SDS011;18301;51.076;17.046;2023-06-14T20:07:51;7.13;;;4.78;;
31716;SDS011;18301;51.076;17.046;2023-06-14T20:12:53;6.68;;;4.53;;
31716;SDS011;18301;51.076;17.046;2023-06-14T20:17:54;7.30;;;4.70;;
31716;SDS011;18301;51.076;17.046;2023-06-14T20:22:56;7.30;;;5.07;;
31716;SDS011;18301;51.076;17.046;2023-06-14T20:27:58;6.07;;;4.82;;
31716;SDS011;18301;51.076;17.046;2023-06-14T20:32:59;5.50;;;4.70;;
31716;SDS011;18301;51.076;17.046;2023-06-14T20:38:01;8.07;;;5.15;;
31716;SDS011;18301;51.076;17.046;2023-06-14T20:43:02;7.85;;;5.40;;
31716;SDS011;18301;51.076;17.046;2023-06-14T20:48:06;5.95;;;4.80;;
31716;SDS011;18301;51.076;17.046;2023-06-14T20:53:08;7.40;;;5.45;;
31716;SDS011;18301;51.076;17.046;2023-06-14T20:58:10;8.32;;;6.25;;
31716;SDS011;18301;51.076;17.046;2023-06-14T21:03:12;8.18;;;6.07;;
31716;SDS011;18301;51.076;17.046;2023-06-14T21:08:14;8.63;;;5.85;;
31716;SDS011;18301;51.076;17.046;2023-06-14T21:13:16;11.77;;;5.80;;
31716;SDS011;18301;51.076;17.046;2023-06-14T21:18:17;9.80;;;6.57;;
31716;SDS011;18301;51.076;17.046;2023-06-14T21:23:19;11.50;;;6.82;;
31716;SDS011;18301;51.076;17.046;2023-06-14T21:28:21;9.40;;;7.25;;
31716;SDS011;18301;51.076;17.046;2023-06-14T21:33:23;11.35;;;7.20;;
31716;SDS011;18301;51.076;17.046;2023-06-14T21:38:24;14.55;;;8.35;;
31716;SDS011;18301;51.076;17.046;2023-06-14T21:43:26;12.05;;;8.27;;
31716;SDS011;18301;51.076;17.046;2023-06-14T21:48:27;12.82;;;8.77;;
31716;SDS011;18301;51.076;17.046;2023-06-14T21:53:29;15.98;;;8.68;;
31716;SDS011;18301;51.076;17.046;2023-06-14T21:58:33;15.82;;;8.38;;
31716;SDS011;18301;51.076;17.046;2023-06-14T22:03:34;14.10;;;9.02;;
31716;SDS011;18301;51.076;17.046;2023-06-14T22:08:36;12.13;;;9.00;;
31716;SDS011;18301;51.076;17.046;2023-06-14T22:13:38;11.40;;;8.20;;
31716;SDS011;18301;51.076;17.046;2023-06-14T22:18:40;11.50;;;8.40;;
31716;SDS011;18301;51.076;17.046;2023-06-14T22:23:43;10.85;;;8.23;;
31716;SDS011;18301;51.076;17.046;2023-06-14T22:28:45;13.85;;;7.85;;
31716;SDS011;18301;51.076;17.046;2023-06-14T22:33:50;10.13;;;8.23;;
31716;SDS011;18301;51.076;17.046;2023-06-14T22:38:52;13.52;;;8.23;;
31716;SDS011;18301;51.076;17.046;2023-06-14T22:43:54;11.95;;;8.13;;
31716;SDS011;18301;51.076;17.046;2023-06-14T22:48:56;12.65;;;8.05;;
31716;SDS011;18301;51.076;17.046;2023-06-14T22:53:59;14.13;;;8.52;;
31716;SDS011;18301;51.076;17.046;2023-06-14T22:59:00;13.00;;;7.85;;
31716;SDS011;18301;51.076;17.046;2023-06-14T23:04:04;11.10;;;8.00;;
31716;SDS011;18301;51.076;17.046;2023-06-14T23:09:06;10.20;;;8.07;;
31716;SDS011;18301;51.076;17.046;2023-06-14T23:14:09;11.18;;;8.10;;
31716;SDS011;18301;51.076;17.046;2023-06-14T23:19:11;12.18;;;7.80;;
31716;SDS011;18301;51.076;17.046;2023-06-14T23:24:15;12.43;;;9.10;;
31716;SDS011;18301;51.076;17.046;2023-06-14T23:29:17;11.90;;;9.07;;
31716;SDS011;18301;51.076;17.046;2023-06-14T23:34:23;11.82;;;8.60;;
31716;SDS011;18301;51.076;17.046;2023-06-14T23:39:27;10.80;;;8.73;;
31716;SDS011;18301;51.076;17.046;2023-06-14T23:44:29;12.43;;;7.90;;
31716;SDS011;18301;51.076;17.046;2023-06-14T23:49:37;11.25;;;8.27;;
31716;SDS011;18301;51.076;17.046;2023-06-14T23:54:39;14.05;;;8.80;;
31716;SDS011;18301;51.076;17.046;2023-06-14T23:59:40;10.40;;;8.30;;
